首页
METAR-TAF:

METAR-TAF

机场 :

庫斯塔奈, 哈萨克斯坦

纬度: 53-12-23N, 经度: 063-33-03E, 海拔: 182米

当前天气观测

该预报发布于40分钟前的06:00 UTC
风速12节,风向西,在西转西南西北之间变化
温度 31°C
湿度 33%
气压 1010 hPa
能见度10公里或以上
1500米以下无云,无积雨云

METAR: UAUU 250600Z 28006MPS 250V310 CAVOK 31/13 Q1010 NOSIG RMK QFE742/0990

时间: 12:40 (06:40 UTC)

预报

该预报发布于1小时和40分钟前的05:00 UTC
预报有效从25日的 06点(UTC)到 25日的 15点(UTC)
风速10节,风向西南
能见度10公里或以上
多云层高于3000英尺, 积雨云.
短暂存在
从 25日的 06点(UTC)到 25日的 15点(UTC)
风速29节,风向多变
能見度: 2000
散云层高于700英尺
多云层高于2000英尺, 积雨云.
雷暴, 雨, 飑

TAF: UAUU 250500Z 2506/2515 22005MPS 9999 BKN030CB TEMPO 2506/2515 VRB15MPS 2000 TSRA SQ SCT007 BKN020CB

超过4000个机场的气象观测和天气预报(METAR&TAF报告)。

可查询的气象台以黄色和红色小点在地图上表示。

将鼠标移到小点上方,可查看气象台名称。

然后点击查看天气观测和预报。

如需切换地图:点击带黑十字的绿色按钮放大地图;点击带横线的绿色按钮缩小地图;或者点击绿色箭头查看邻近地区的地图。


METAR-TAF: